createdAt,value
2019-05-19T00:02:06.875Z,96171.80
2019-05-19T00:04:34.063Z,96175.48
2019-05-19T00:07:01.539Z,96177.99
2019-05-19T00:09:28.552Z,96184.02
2019-05-19T00:11:55.549Z,96177.99
2019-05-19T00:14:23.849Z,96172.19
2019-05-19T00:16:50.932Z,96168.46
2019-05-19T00:19:26.431Z,96167.59
2019-05-19T00:21:50.280Z,96168.48
2019-05-19T00:24:17.882Z,96165.69
2019-05-19T00:26:45.127Z,96165.64
2019-05-19T00:29:12.043Z,96163.64
2019-05-19T00:31:39.075Z,96163.38
2019-05-19T00:34:06.184Z,96162.38
2019-05-19T00:36:33.789Z,96167.35
2019-05-19T00:39:00.927Z,96167.80
2019-05-19T00:41:29.253Z,96170.40
2019-05-19T00:43:56.370Z,96168.82
2019-05-19T00:46:24.270Z,96175.63
2019-05-19T00:48:51.472Z,96176.14
2019-05-19T00:51:19.738Z,96173.92
2019-05-19T00:53:47.151Z,96170.14
2019-05-19T00:56:15.566Z,96165.98
2019-05-19T00:58:45.374Z,96165.98
2019-05-19T01:01:12.790Z,96153.82
2019-05-19T01:03:40.043Z,96161.98
2019-05-19T01:06:07.667Z,96159.25
2019-05-19T01:08:35.116Z,96156.10
2019-05-19T01:11:02.842Z,96156.27
2019-05-19T01:13:30.331Z,96160.05
2019-05-19T01:15:57.947Z,96163.29
2019-05-19T01:18:25.135Z,96164.70
2019-05-19T01:20:52.342Z,96156.84
2019-05-19T01:23:19.708Z,96154.20
2019-05-19T01:25:47.452Z,96154.20
2019-05-19T01:28:14.855Z,96158.28
2019-05-19T01:30:42.931Z,96157.63
2019-05-19T01:33:10.339Z,96159.16
2019-05-19T01:35:38.151Z,96159.42
2019-05-19T01:38:05.369Z,96150.64
2019-05-19T01:40:32.656Z,96148.89
2019-05-19T01:43:00.063Z,96142.89
2019-05-19T01:45:28.286Z,96109.98
2019-05-19T01:47:55.701Z,96109.98
2019-05-19T01:50:23.200Z,96128.88
2019-05-19T01:52:50.908Z,96130.59
2019-05-19T01:55:19.068Z,96137.75
2019-05-19T01:57:46.198Z,96137.75
2019-05-19T02:00:14.175Z,96143.53
2019-05-19T02:02:41.262Z,96114.84
2019-05-19T02:05:08.898Z,96114.84
2019-05-19T02:07:36.333Z,96132.61
2019-05-19T02:10:08.807Z,96136.30
2019-05-19T02:12:38.367Z,96132.88
2019-05-19T02:15:06.344Z,96132.88
2019-05-19T02:17:33.925Z,96114.14
2019-05-19T02:20:01.100Z,96114.14
2019-05-19T02:22:28.446Z,96138.05
2019-05-19T02:24:55.456Z,96144.75
2019-05-19T02:27:22.996Z,96148.34
2019-05-19T02:29:50.375Z,96153.47
2019-05-19T02:32:17.628Z,96153.98
2019-05-19T02:34:45.111Z,96151.96
2019-05-19T02:37:12.362Z,96161.25
2019-05-19T02:39:39.821Z,96159.96
2019-05-19T02:42:08.163Z,96161.30
2019-05-19T02:44:57.576Z,96157.98
2019-05-19T02:47:26.128Z,96158.61
2019-05-19T02:49:54.717Z,96158.61
2019-05-19T02:52:22.447Z,96159.53
2019-05-19T02:54:50.637Z,96158.64
2019-05-19T02:57:18.273Z,96154.73
2019-05-19T02:59:45.902Z,96164.23
2019-05-19T03:02:14.579Z,96164.23
2019-05-19T03:04:41.844Z,96137.66
2019-05-19T03:07:09.596Z,96164.92
2019-05-19T03:09:37.196Z,96169.34
2019-05-19T03:12:04.257Z,96173.42
2019-05-19T03:14:31.968Z,96153.38
2019-05-19T03:16:59.092Z,96153.45
2019-05-19T03:19:26.138Z,96153.45
2019-05-19T03:21:54.304Z,96172.77
2019-05-19T03:24:21.436Z,96172.77
2019-05-19T03:26:50.040Z,96155.14
2019-05-19T03:29:19.955Z,96167.55
2019-05-19T03:31:47.325Z,96165.31
2019-05-19T03:34:15.697Z,96169.66
2019-05-19T03:36:42.734Z,96168.88
2019-05-19T03:39:10.242Z,96165.02
2019-05-19T03:41:37.582Z,96133.02
2019-05-19T03:44:04.880Z,96169.03
2019-05-19T03:46:32.006Z,96160.56
2019-05-19T03:48:59.052Z,96167.23
2019-05-19T03:51:30.671Z,96168.59
2019-05-19T03:53:56.900Z,96164.45
2019-05-19T03:56:23.912Z,96165.00
2019-05-19T03:58:51.419Z,96146.64
2019-05-19T04:01:18.560Z,96177.95
2019-05-19T04:03:45.820Z,96165.84
2019-05-19T04:06:13.238Z,96161.14
2019-05-19T04:08:40.728Z,96159.06
2019-05-19T04:11:07.931Z,96153.56
2019-05-19T04:13:35.134Z,96159.87
2019-05-19T04:16:02.423Z,96154.38
2019-05-19T04:18:29.587Z,96154.05
2019-05-19T04:20:56.897Z,96162.28
2019-05-19T04:23:23.835Z,96162.79
2019-05-19T04:25:51.234Z,96149.98
2019-05-19T04:28:18.356Z,96151.19
2019-05-19T04:30:45.531Z,96148.90
2019-05-19T04:33:12.577Z,96148.47
2019-05-19T04:35:39.488Z,96149.39
2019-05-19T04:38:06.747Z,96144.73
2019-05-19T04:40:34.876Z,96145.34
2019-05-19T04:43:02.073Z,96144.33
2019-05-19T04:45:28.969Z,96145.67
2019-05-19T04:47:55.891Z,96147.52
2019-05-19T04:50:23.148Z,96145.59
2019-05-19T04:52:50.560Z,96145.73
2019-05-19T04:55:17.734Z,96148.79
2019-05-19T04:57:44.751Z,96147.58
2019-05-19T05:00:12.810Z,96146.81
2019-05-19T05:02:39.830Z,96145.34
2019-05-19T05:05:07.244Z,96146.38
2019-05-19T05:07:34.354Z,96152.50
2019-05-19T05:10:01.568Z,96145.21
2019-05-19T05:12:29.601Z,96144.64
2019-05-19T05:14:57.382Z,96151.67
2019-05-19T05:17:24.599Z,96138.52
2019-05-19T05:19:51.846Z,96138.33
2019-05-19T05:22:21.961Z,96139.39
2019-05-19T05:24:47.992Z,96136.41
2019-05-19T05:27:14.989Z,96141.73
2019-05-19T05:29:42.371Z,96143.03
2019-05-19T05:32:09.661Z,96141.91
2019-05-19T05:34:36.671Z,96139.37
2019-05-19T05:37:03.732Z,96139.14
2019-05-19T05:39:30.749Z,96127.41
2019-05-19T05:41:57.659Z,96124.31
2019-05-19T05:44:24.687Z,96122.52
2019-05-19T05:46:54.106Z,96121.81
2019-05-19T05:49:21.718Z,96126.46
2019-05-19T05:51:49.041Z,96116.75
2019-05-19T05:54:16.317Z,96125.83
2019-05-19T05:56:43.343Z,96125.42
2019-05-19T05:59:10.493Z,96125.98
2019-05-19T06:01:37.380Z,96127.95
2019-05-19T06:04:04.897Z,96129.38
2019-05-19T06:06:32.420Z,96122.54
2019-05-19T06:08:59.567Z,96122.86
2019-05-19T06:11:26.567Z,96119.27
2019-05-19T06:13:53.528Z,96118.09
2019-05-19T06:16:20.419Z,96104.36
2019-05-19T06:18:47.688Z,96107.73
2019-05-19T06:21:14.699Z,96101.61
2019-05-19T06:23:42.072Z,96103.66
2019-05-19T06:26:09.080Z,96103.66
2019-05-19T06:28:36.026Z,96111.23
2019-05-19T06:31:04.181Z,96088.91
2019-05-19T06:33:31.098Z,96109.66
2019-05-19T06:35:58.508Z,96103.38
2019-05-19T06:38:25.535Z,96102.59
2019-05-19T06:40:53.029Z,96098.23
2019-05-19T06:43:20.027Z,96101.66
2019-05-19T06:45:47.022Z,96093.03
2019-05-19T06:48:14.343Z,96088.63
2019-05-19T06:50:41.556Z,96084.72
2019-05-19T06:53:13.905Z,96080.63
2019-05-19T06:55:40.050Z,96084.22
2019-05-19T06:58:07.583Z,96086.62
2019-05-19T07:00:34.866Z,96081.20
2019-05-19T07:03:02.097Z,96083.61
2019-05-19T07:05:29.197Z,96083.34
2019-05-19T07:07:56.395Z,96080.60
2019-05-19T07:10:23.445Z,96077.43
2019-05-19T07:12:50.591Z,96075.68
2019-05-19T07:15:20.024Z,96078.33
2019-05-19T07:17:47.239Z,96064.45
2019-05-19T07:20:16.359Z,96066.52
2019-05-19T07:22:43.713Z,96066.58
2019-05-19T07:25:11.256Z,96068.54
2019-05-19T07:27:38.283Z,96060.86
2019-05-19T07:30:06.264Z,96062.31
2019-05-19T07:32:33.969Z,96061.98
2019-05-19T07:35:01.411Z,96061.89
2019-05-19T07:37:29.648Z,96068.20
2019-05-19T07:39:56.691Z,96067.83
2019-05-19T07:42:23.616Z,96060.92
2019-05-19T07:44:50.595Z,96063.41
2019-05-19T07:47:17.751Z,96060.84
2019-05-19T07:49:44.851Z,96056.59
2019-05-19T07:52:12.146Z,96050.70
2019-05-19T07:54:39.151Z,96055.11
2019-05-19T07:57:06.552Z,96061.14
2019-05-19T07:59:33.566Z,96058.68
2019-05-19T08:02:00.816Z,96054.48
2019-05-19T08:04:27.715Z,96050.63
2019-05-19T08:06:55.034Z,96048.30
2019-05-19T08:09:22.136Z,96053.84
2019-05-19T08:11:49.650Z,96051.41
2019-05-19T08:14:16.747Z,96053.30
2019-05-19T08:16:43.741Z,96054.42
2019-05-19T08:19:10.731Z,96051.13
2019-05-19T08:21:38.110Z,96053.79
2019-05-19T08:24:05.170Z,96050.97
2019-05-19T08:26:32.405Z,96047.53
2019-05-19T08:29:00.010Z,96042.34
2019-05-19T08:31:27.100Z,96042.97
2019-05-19T08:33:54.237Z,96039.72
2019-05-19T08:36:21.181Z,96033.37
2019-05-19T08:38:48.307Z,96030.69
2019-05-19T08:41:15.607Z,96019.72
2019-05-19T08:43:42.646Z,96021.07
2019-05-19T08:46:09.860Z,96022.70
2019-05-19T08:48:37.180Z,96022.15
2019-05-19T08:51:04.221Z,96020.81
2019-05-19T08:53:31.377Z,96023.24
2019-05-19T08:55:58.237Z,96015.65
2019-05-19T08:58:25.228Z,96019.23
2019-05-19T09:00:52.435Z,96021.78
2019-05-19T09:03:19.458Z,96017.08
2019-05-19T09:05:48.001Z,96017.50
2019-05-19T09:08:15.183Z,96009.47
2019-05-19T09:10:42.949Z,96005.28
2019-05-19T09:13:10.300Z,95998.76
2019-05-19T09:15:38.286Z,96007.50
2019-05-19T09:18:05.585Z,96001.50
2019-05-19T09:20:35.534Z,96003.98
2019-05-19T09:23:02.673Z,95997.67
2019-05-19T09:25:29.564Z,96007.45
2019-05-19T09:27:56.993Z,96001.08
2019-05-19T09:30:24.404Z,95999.32
2019-05-19T09:32:51.327Z,95986.53
2019-05-19T09:35:21.219Z,95984.31
2019-05-19T09:37:48.210Z,95982.50
2019-05-19T09:40:15.952Z,95982.92
2019-05-19T09:42:43.058Z,95974.84
2019-05-19T09:45:10.800Z,95970.55
2019-05-19T09:47:39.299Z,95965.78
2019-05-19T09:50:07.295Z,95971.38
2019-05-19T09:52:34.331Z,95972.56
2019-05-19T09:55:02.039Z,95974.28
2019-05-19T09:57:29.706Z,95965.88
2019-05-19T09:59:57.244Z,95973.30
2019-05-19T10:02:24.366Z,95963.61
2019-05-19T10:04:51.333Z,95965.31
2019-05-19T10:07:18.444Z,95958.22
2019-05-19T10:09:57.097Z,95962.70
2019-05-19T10:12:24.529Z,95959.22
2019-05-19T10:14:52.030Z,95967.63
2019-05-19T10:17:19.354Z,95969.23
2019-05-19T10:19:46.834Z,95963.86
2019-05-19T10:22:14.223Z,95960.11
2019-05-19T10:24:56.354Z,95954.52
2019-05-19T10:27:10.953Z,95947.40
2019-05-19T10:29:38.215Z,95948.33
2019-05-19T10:32:05.420Z,95941.88
2019-05-19T10:34:32.807Z,95947.58
2019-05-19T10:37:00.099Z,95944.02
2019-05-19T10:39:27.043Z,95938.11
2019-05-19T10:41:54.223Z,95942.12
2019-05-19T10:44:21.450Z,95945.38
2019-05-19T10:46:48.510Z,95944.75
2019-05-19T10:49:15.414Z,95940.59
2019-05-19T10:51:42.953Z,95938.61
2019-05-19T10:54:09.949Z,95935.20
2019-05-19T10:56:36.862Z,95937.81
2019-05-19T10:59:04.187Z,95933.00
2019-05-19T11:01:31.236Z,95940.13
2019-05-19T11:03:58.498Z,95932.73
2019-05-19T11:06:25.614Z,95924.34
2019-05-19T11:08:52.634Z,95918.93
2019-05-19T11:11:19.849Z,95917.17
2019-05-19T11:13:46.968Z,95913.41
2019-05-19T11:16:14.215Z,95911.38
2019-05-19T11:18:41.962Z,95908.37
2019-05-19T11:21:09.028Z,95910.43
2019-05-19T11:23:36.039Z,95907.33
2019-05-19T11:26:03.353Z,95910.20
2019-05-19T11:28:30.476Z,95906.73
2019-05-19T11:30:57.499Z,95907.27
2019-05-19T11:33:24.450Z,95915.03
2019-05-19T11:35:51.447Z,95909.48
2019-05-19T11:38:18.567Z,95903.89
2019-05-19T11:40:45.787Z,95912.69
2019-05-19T11:43:12.704Z,95919.90
2019-05-19T11:45:40.043Z,95916.15
2019-05-19T11:48:07.088Z,95917.30
2019-05-19T11:50:34.076Z,95930.83
2019-05-19T11:53:01.037Z,95964.77
2019-05-19T11:55:27.944Z,95955.08
2019-05-19T11:57:55.195Z,95950.52
2019-05-19T12:00:22.342Z,95947.97
2019-05-19T12:02:49.539Z,95930.56
2019-05-19T12:05:17.665Z,95934.02
2019-05-19T12:07:44.627Z,95950.08
2019-05-19T12:10:12.092Z,95965.36
2019-05-19T12:12:39.486Z,95983.73
2019-05-19T12:15:07.597Z,95980.45
2019-05-19T12:17:34.665Z,95980.16
2019-05-19T12:20:02.231Z,95959.59
2019-05-19T12:22:29.023Z,95944.95
2019-05-19T12:24:56.487Z,95945.16
2019-05-19T12:27:23.759Z,95941.05
2019-05-19T12:29:50.772Z,95942.95
2019-05-19T12:32:17.976Z,95960.62
2019-05-19T12:34:44.887Z,95961.80
2019-05-19T12:37:12.035Z,95958.22
2019-05-19T12:39:39.090Z,95966.72
2019-05-19T12:42:06.739Z,95968.17
2019-05-19T12:44:33.755Z,95967.52
2019-05-19T12:47:00.945Z,95965.42
2019-05-19T12:49:28.055Z,95964.69
2019-05-19T12:51:55.126Z,95970.30
2019-05-19T12:54:22.182Z,95971.87
2019-05-19T12:56:49.315Z,95967.98
2019-05-19T12:59:16.275Z,95966.72
2019-05-19T13:01:43.416Z,95969.06
2019-05-19T13:04:10.864Z,95968.55
2019-05-19T13:06:37.977Z,95970.18
2019-05-19T13:09:05.392Z,95973.67
2019-05-19T13:11:32.414Z,95982.89
2019-05-19T13:13:59.348Z,95985.77
2019-05-19T13:16:26.297Z,95990.41
2019-05-19T13:18:53.531Z,95990.77
2019-05-19T13:21:20.752Z,95992.15
2019-05-19T13:23:48.091Z,95979.69
2019-05-19T13:26:15.127Z,95968.55
2019-05-19T13:28:42.068Z,95964.05
2019-05-19T13:31:09.079Z,95964.13
2019-05-19T13:33:36.048Z,95966.69
2019-05-19T13:36:03.276Z,95975.13
2019-05-19T13:38:30.490Z,95976.37
2019-05-19T13:40:57.496Z,95967.75
2019-05-19T13:43:26.240Z,95964.59
2019-05-19T13:45:54.008Z,95959.71
2019-05-19T13:48:21.111Z,95962.90
2019-05-19T13:50:48.135Z,95959.95
2019-05-19T13:53:15.119Z,95965.16
2019-05-19T13:55:42.219Z,95963.26
2019-05-19T13:58:09.651Z,95963.16
2019-05-19T14:00:36.785Z,95965.11
2019-05-19T14:03:04.038Z,95964.98
2019-05-19T14:05:31.033Z,95967.43
2019-05-19T14:07:58.225Z,95962.06
2019-05-19T14:10:25.316Z,95961.94
2019-05-19T14:12:52.295Z,95964.62
2019-05-19T14:15:19.588Z,95957.84
2019-05-19T14:17:46.886Z,95952.81
2019-05-19T14:20:14.588Z,95954.11
2019-05-19T14:22:41.623Z,95948.61
2019-05-19T14:25:09.765Z,95945.41
2019-05-19T14:27:36.894Z,95938.91
2019-05-19T14:30:06.060Z,95943.42
2019-05-19T14:32:33.763Z,95942.91
2019-05-19T14:35:00.736Z,95952.81
2019-05-19T14:37:27.918Z,95944.28
2019-05-19T14:39:54.946Z,95949.91
2019-05-19T14:42:41.994Z,95942.41
2019-05-19T14:45:10.215Z,95938.20
2019-05-19T14:47:56.364Z,95941.09
2019-05-19T14:50:24.536Z,95947.75
2019-05-19T14:52:51.891Z,95945.08
2019-05-19T14:55:19.317Z,95939.99
2019-05-19T14:57:46.458Z,95942.44
2019-05-19T15:00:16.696Z,95932.30
2019-05-19T15:02:43.998Z,95934.38
2019-05-19T15:05:11.963Z,95931.06
2019-05-19T15:07:38.972Z,95926.23
2019-05-19T15:10:07.204Z,95923.17
2019-05-19T15:12:34.508Z,95915.04
2019-05-19T15:15:04.071Z,95921.01
2019-05-19T15:17:31.250Z,95916.97
2019-05-19T15:19:58.706Z,95918.01
2019-05-19T15:22:25.609Z,95920.28
2019-05-19T15:24:52.954Z,95915.00
2019-05-19T15:27:19.960Z,95913.09
2019-05-19T15:29:47.149Z,95920.62
2019-05-19T15:32:14.326Z,95916.75
2019-05-19T15:34:41.606Z,95919.42
2019-05-19T15:37:08.527Z,95918.16
2019-05-19T15:39:35.914Z,95920.57
2019-05-19T15:42:03.351Z,95916.06
2019-05-19T15:44:30.435Z,95919.02
2019-05-19T15:46:57.762Z,95912.09
2019-05-19T15:49:24.777Z,95913.91
2019-05-19T15:52:02.122Z,95918.48
2019-05-19T15:54:20.591Z,95915.40
2019-05-19T15:56:48.111Z,95916.95
2019-05-19T15:59:15.516Z,95916.95
2019-05-19T16:01:42.560Z,95909.87
2019-05-19T16:04:09.631Z,95907.50
2019-05-19T16:06:39.033Z,95908.88
2019-05-19T16:09:06.378Z,95910.88
2019-05-19T16:11:33.662Z,95919.95
2019-05-19T16:14:00.656Z,95916.00
2019-05-19T16:16:27.655Z,95907.70
2019-05-19T16:18:54.952Z,95900.96
2019-05-19T16:21:22.145Z,95900.96
2019-05-19T16:23:49.422Z,95906.03
2019-05-19T16:26:16.740Z,95906.98
2019-05-19T16:28:43.602Z,95910.71
2019-05-19T16:31:10.815Z,95906.73
2019-05-19T16:33:37.883Z,95908.72
2019-05-19T16:36:07.762Z,95914.26
2019-05-19T16:38:33.981Z,95914.86
2019-05-19T16:41:00.792Z,95907.59
2019-05-19T16:43:27.654Z,95908.80
2019-05-19T16:45:54.850Z,95918.48
2019-05-19T16:48:23.485Z,95916.41
2019-05-19T16:50:51.007Z,95916.05
2019-05-19T16:53:18.019Z,95917.80
2019-05-19T16:55:46.325Z,95920.74
2019-05-19T16:58:21.051Z,95921.88
2019-05-19T17:00:43.124Z,95918.06
2019-05-19T17:03:10.026Z,95916.43
2019-05-19T17:05:37.093Z,95915.22
2019-05-19T17:08:04.303Z,95912.03
2019-05-19T17:10:31.483Z,95921.88
2019-05-19T17:12:58.892Z,95920.67
2019-05-19T17:15:26.156Z,95926.52
2019-05-19T17:17:53.269Z,95934.19
2019-05-19T17:20:20.598Z,95935.13
2019-05-19T17:22:47.507Z,95934.23
2019-05-19T17:25:14.827Z,95939.32
2019-05-19T17:27:41.820Z,95946.72
2019-05-19T17:30:10.096Z,95955.09
2019-05-19T17:32:37.402Z,95943.42
2019-05-19T17:35:05.235Z,95942.70
2019-05-19T17:37:32.176Z,95943.63
2019-05-19T17:39:59.248Z,95948.88
2019-05-19T17:42:26.420Z,95947.83
2019-05-19T17:44:53.632Z,95949.69
2019-05-19T17:47:21.186Z,95954.58
2019-05-19T17:49:48.471Z,95957.42
2019-05-19T17:52:15.986Z,95960.05
2019-05-19T17:54:43.317Z,95955.82
2019-05-19T17:57:10.664Z,95951.55
2019-05-19T17:59:42.070Z,95947.67
2019-05-19T18:02:08.996Z,95946.35
2019-05-19T18:04:36.288Z,95944.88
2019-05-19T18:07:03.799Z,95934.72
2019-05-19T18:09:30.835Z,95931.32
2019-05-19T18:11:57.648Z,95924.97
2019-05-19T18:14:24.696Z,95922.03
2019-05-19T18:16:51.623Z,95920.41
2019-05-19T18:19:18.738Z,95918.64
2019-05-19T18:21:46.121Z,95924.13
2019-05-19T18:24:13.425Z,95916.40
2019-05-19T18:26:40.776Z,95910.63
2019-05-19T18:29:07.853Z,95904.12
2019-05-19T18:31:34.963Z,95906.77
2019-05-19T18:34:02.006Z,95908.67
2019-05-19T18:36:29.156Z,95911.94
2019-05-19T18:38:56.165Z,95909.89
2019-05-19T18:41:23.444Z,95914.72
2019-05-19T18:43:50.776Z,95919.91
2019-05-19T18:46:18.223Z,95919.36
2019-05-19T18:48:45.461Z,95916.23
2019-05-19T18:51:12.849Z,95915.52
2019-05-19T18:53:40.106Z,95921.11
2019-05-19T18:56:07.154Z,95923.98
2019-05-19T18:58:34.809Z,95920.55
2019-05-19T19:01:02.358Z,95915.13
2019-05-19T19:03:29.533Z,95909.72
2019-05-19T19:05:56.467Z,95908.78
2019-05-19T19:08:23.602Z,95912.55
2019-05-19T19:10:50.669Z,95911.53
2019-05-19T19:13:17.964Z,95910.34
2019-05-19T19:15:45.064Z,95918.25
2019-05-19T19:18:11.983Z,95912.77
2019-05-19T19:20:39.286Z,95912.95
2019-05-19T19:23:06.522Z,95913.61
2019-05-19T19:25:33.822Z,95915.41
2019-05-19T19:28:01.068Z,95919.50
2019-05-19T19:30:28.067Z,95915.15
2019-05-19T19:32:55.407Z,95917.05
2019-05-19T19:35:22.541Z,95916.19
2019-05-19T19:37:49.690Z,95911.95
2019-05-19T19:40:28.210Z,95911.42
2019-05-19T19:42:57.179Z,95908.73
2019-05-19T19:45:24.526Z,95914.30
2019-05-19T19:47:51.768Z,95897.86
2019-05-19T19:50:19.092Z,95899.48
2019-05-19T19:52:46.441Z,95893.65
2019-05-19T19:55:13.471Z,95896.25
2019-05-19T19:57:40.771Z,95899.83
2019-05-19T20:00:17.905Z,95894.74
2019-05-19T20:02:37.199Z,95896.73
2019-05-19T20:05:04.857Z,95893.06
2019-05-19T20:07:31.970Z,95895.41
2019-05-19T20:10:00.062Z,95895.84
2019-05-19T20:12:27.276Z,95900.36
2019-05-19T20:14:54.621Z,95896.67
2019-05-19T20:17:21.964Z,95907.25
2019-05-19T20:19:49.138Z,95910.62
2019-05-19T20:22:16.184Z,95906.11
2019-05-19T20:24:43.413Z,95899.84
2019-05-19T20:27:10.676Z,95899.69
2019-05-19T20:29:38.162Z,95895.60
2019-05-19T20:32:05.125Z,95895.24
2019-05-19T20:34:32.497Z,95895.66
2019-05-19T20:36:59.514Z,95886.47
2019-05-19T20:39:26.645Z,95893.13
2019-05-19T20:41:53.825Z,95898.41
2019-05-19T20:44:20.850Z,95892.72
2019-05-19T20:46:48.541Z,95896.05
2019-05-19T20:49:15.792Z,95892.16
2019-05-19T20:51:42.933Z,95898.03
2019-05-19T20:54:10.242Z,95897.86
2019-05-19T20:56:37.375Z,95894.16
2019-05-19T20:59:04.383Z,95893.95
2019-05-19T21:01:31.536Z,95897.70
2019-05-19T21:03:58.629Z,95899.26
2019-05-19T21:06:25.939Z,95898.67
2019-05-19T21:08:53.105Z,95905.73
2019-05-19T21:11:20.355Z,95911.62
2019-05-19T21:13:47.456Z,95913.36
2019-05-19T21:16:14.521Z,95912.40
2019-05-19T21:18:41.523Z,95911.23
2019-05-19T21:21:08.681Z,95921.59
2019-05-19T21:23:36.047Z,95921.59
2019-05-19T21:26:03.275Z,95916.11
2019-05-19T21:28:30.542Z,95915.53
2019-05-19T21:31:05.269Z,95913.38
2019-05-19T21:33:26.491Z,95901.84
2019-05-19T21:35:53.796Z,95901.05
2019-05-19T21:38:21.141Z,95899.48
2019-05-19T21:40:47.930Z,95902.63
2019-05-19T21:43:15.105Z,95900.68
2019-05-19T21:45:42.319Z,95891.88
2019-05-19T21:48:09.450Z,95890.11
2019-05-19T21:50:36.429Z,95873.09
2019-05-19T21:53:06.380Z,95875.84
2019-05-19T21:55:32.310Z,95863.70
2019-05-19T21:57:59.243Z,95874.66
2019-05-19T22:00:28.457Z,95885.22
2019-05-19T22:02:55.662Z,95880.73
2019-05-19T22:05:23.154Z,95876.22
2019-05-19T22:07:59.068Z,95875.05
2019-05-19T22:10:26.511Z,95882.48
2019-05-19T22:12:53.324Z,95882.70
2019-05-19T22:15:20.881Z,95875.06
2019-05-19T22:17:47.968Z,95865.50
2019-05-19T22:20:15.132Z,95863.93
2019-05-19T22:22:42.310Z,95868.03
2019-05-19T22:25:09.570Z,95868.03
2019-05-19T22:27:36.653Z,95875.66
2019-05-19T22:30:05.272Z,95876.44
2019-05-19T22:32:32.337Z,95876.63
2019-05-19T22:34:59.375Z,95872.91
2019-05-19T22:37:26.277Z,95869.98
2019-05-19T22:39:53.615Z,95862.95
2019-05-19T22:42:20.960Z,95855.13
2019-05-19T22:44:48.193Z,95852.38
2019-05-19T22:47:15.256Z,95854.55
2019-05-19T22:49:42.268Z,95859.62
2019-05-19T22:52:09.435Z,95855.91
2019-05-19T22:54:36.714Z,95844.38
2019-05-19T22:57:04.172Z,95853.36
2019-05-19T22:59:31.927Z,95846.91
2019-05-19T23:01:58.887Z,95844.57
2019-05-19T23:04:26.749Z,95829.13
2019-05-19T23:06:53.798Z,95839.28
2019-05-19T23:09:21.132Z,95840.66
2019-05-19T23:11:48.128Z,95846.33
2019-05-19T23:14:17.861Z,95837.34
2019-05-19T23:16:47.026Z,95844.17
2019-05-19T23:19:14.179Z,95844.76
2019-05-19T23:21:41.562Z,95851.39
2019-05-19T23:24:08.720Z,95846.91
2019-05-19T23:26:35.726Z,95840.63
2019-05-19T23:29:03.159Z,95833.78
2019-05-19T23:31:31.293Z,95820.29
2019-05-19T23:33:58.504Z,95820.09
2019-05-19T23:36:25.778Z,95822.83
2019-05-19T23:38:52.876Z,95819.70
2019-05-19T23:41:19.835Z,95815.61
2019-05-19T23:43:46.745Z,95806.03
2019-05-19T23:46:13.650Z,95805.25
2019-05-19T23:48:40.635Z,95799.20
2019-05-19T23:51:07.717Z,95800.38
2019-05-19T23:53:34.822Z,95794.11
2019-05-19T23:56:02.104Z,95789.03
2019-05-19T23:58:29.189Z,95780.06
